Time;durP1;ratioP1;P1;durP2;ratioP2;P2;SDS_P1;SDS_P2;PMS_P1;PMS_P2;Temp;Humidity;BMP_temperature;BMP_pressure;BME280_temperature;BME280_humidity;BME280_pressure;Samples;Min_cycle;Max_cycle;Signal;HPM_P1;HPM_P2
2022/10/20 00:00:24;;;;;;;8.68;4.63;;;;;;;20.33;92.67;101242.31;2101994;28;20143;-72
2022/10/20 00:01:46;;;;;;;12.65;4.80;;;;;;;20.32;92.66;101243.19;2107193;28;20423;-73
2022/10/20 00:03:08;;;;;;;12.70;4.38;;;;;;;20.31;92.71;101247.66;2104714;28;20132;-72
2022/10/20 00:04:31;;;;;;;16.20;4.85;;;;;;;20.30;92.64;101243.19;2094205;28;20163;-72
2022/10/20 00:05:54;;;;;;;11.82;4.00;;;;;;;20.30;92.21;101241.41;2090881;28;20048;-72
2022/10/20 00:07:17;;;;;;;11.63;4.30;;;;;;;20.30;92.14;101245.88;2102176;28;20139;-72
2022/10/20 00:08:38;;;;;;;14.50;4.82;;;;;;;20.31;91.77;101247.66;2102425;28;20052;-72
2022/10/20 00:10:01;;;;;;;7.47;4.00;;;;;;;20.30;91.89;101240.50;2100999;28;20155;-72
2022/10/20 00:11:25;;;;;;;14.07;3.92;;;;;;;20.31;91.80;101231.56;2093540;28;20052;-72
2022/10/20 00:12:46;;;;;;;8.68;4.03;;;;;;;20.28;91.47;101234.31;2100323;28;20443;-73
2022/10/20 00:14:10;;;;;;;14.20;4.47;;;;;;;20.27;91.29;101236.09;2093719;28;20044;-72
2022/10/20 00:15:31;;;;;;;9.75;4.05;;;;;;;20.26;91.13;101237.00;2098333;28;20469;-72
2022/10/20 00:16:54;;;;;;;7.85;3.53;;;;;;;20.26;91.21;101228.97;2102325;28;20070;-73
2022/10/20 00:18:15;;;;;;;11.40;4.47;;;;;;;20.28;90.82;101239.69;2094034;28;20442;-72
2022/10/20 00:19:38;;;;;;;7.30;3.55;;;;;;;20.29;90.44;101236.06;2093652;28;20068;-72
2022/10/20 00:21:04;;;;;;;9.82;3.88;;;;;;;20.30;90.22;101241.41;2094105;28;20052;-72
2022/10/20 00:22:27;;;;;;;13.55;3.63;;;;;;;20.30;89.86;101236.03;2094422;28;20045;-73
2022/10/20 00:23:48;;;;;;;9.52;3.92;;;;;;;20.30;89.60;101233.34;2106993;28;20459;-72
2022/10/20 00:25:11;;;;;;;11.57;4.03;;;;;;;20.29;89.64;101228.00;2095455;28;20067;-73
2022/10/20 00:26:32;;;;;;;11.07;4.30;;;;;;;20.30;89.84;101227.09;2099175;28;20051;-72
2022/10/20 00:27:55;;;;;;;8.32;3.85;;;;;;;20.29;89.98;101228.91;2102211;28;20052;-72
2022/10/20 00:29:16;;;;;;;10.48;3.58;;;;;;;20.30;90.06;101225.31;2093904;28;20052;-73
2022/10/20 00:30:40;;;;;;;9.70;4.18;;;;;;;20.28;89.95;101224.44;2093462;28;20082;-72
2022/10/20 00:32:02;;;;;;;11.57;4.07;;;;;;;20.30;90.10;101222.63;2094421;28;20492;-73
2022/10/20 00:33:24;;;;;;;9.70;4.15;;;;;;;20.30;90.41;101225.31;2093695;28;20045;-73
2022/10/20 00:34:46;;;;;;;12.48;4.63;;;;;;;20.29;90.57;101223.53;2102097;28;20044;-73
2022/10/20 00:36:13;;;;;;;12.30;4.72;;;;;;;20.30;90.72;101225.31;2096677;28;20101;-72
2022/10/20 00:37:37;;;;;;;8.52;4.05;;;;;;;20.32;90.94;101227.09;2093091;28;20051;-72
2022/10/20 00:39:00;;;;;;;12.82;4.80;;;;;;;20.30;91.18;101230.66;2090563;28;20044;-73
2022/10/20 00:40:22;;;;;;;9.60;3.97;;;;;;;20.32;91.28;101224.41;2091171;28;20491;-73
2022/10/20 00:41:45;;;;;;;10.75;5.18;;;;;;;20.33;91.48;101229.78;2091241;28;20198;-73
2022/10/20 00:43:09;;;;;;;14.50;4.45;;;;;;;20.33;91.61;101229.78;2099341;28;20040;-73
2022/10/20 00:44:53;;;;;;;12.75;4.28;;;;;;;20.32;91.52;101222.59;2096155;28;20116;-73
2022/10/20 00:46:18;;;;;;;10.15;4.32;;;;;;;20.30;91.38;101225.31;2095358;28;20052;-73
2022/10/20 00:47:45;;;;;;;10.82;4.18;;;;;;;20.29;91.78;101228.00;2100033;28;20036;-72
2022/10/20 00:49:14;;;;;;;12.70;4.25;;;;;;;20.29;91.97;101228.00;2096198;28;20392;-72
2022/10/20 00:50:40;;;;;;;12.00;4.20;;;;;;;20.29;92.21;101233.38;2096380;28;20105;-72
2022/10/20 00:52:05;;;;;;;9.95;3.75;;;;;;;20.30;92.00;101230.66;2102351;28;20770;-72
2022/10/20 00:53:28;;;;;;;11.77;4.38;;;;;;;20.31;91.50;101231.56;2096295;28;20084;-73
2022/10/20 00:54:51;;;;;;;9.10;4.20;;;;;;;20.32;91.82;101232.44;2084999;28;20037;-72
2022/10/20 00:56:13;;;;;;;11.98;3.83;;;;;;;20.32;91.55;101227.09;2098359;28;20479;-73
2022/10/20 00:57:36;;;;;;;9.13;4.10;;;;;;;20.32;91.78;101232.44;2103657;28;20216;-73
2022/10/20 00:59:00;;;;;;;18.98;4.38;;;;;;;20.34;91.05;101236.03;2104132;28;20040;-72
2022/10/20 01:00:22;;;;;;;11.00;4.00;;;;;;;20.35;91.61;101229.75;2104058;28;20109;-72
2022/10/20 01:01:46;;;;;;;10.23;4.10;;;;;;;20.34;91.17;101230.66;2102526;28;20062;-73
2022/10/20 01:03:14;;;;;;;11.52;4.28;;;;;;;20.34;91.39;101231.56;2104190;28;20094;-72
2022/10/20 01:04:38;;;;;;;10.88;4.55;;;;;;;20.33;91.67;101227.09;2110000;28;20495;-72
2022/10/20 01:05:59;;;;;;;7.95;3.28;;;;;;;20.30;91.84;101227.09;2097687;28;20048;-73
2022/10/20 01:07:23;;;;;;;9.90;4.32;;;;;;;20.30;92.08;101229.78;2100919;28;20036;-73
2022/10/20 01:08:45;;;;;;;13.00;3.78;;;;;;;20.30;92.04;101235.16;2102668;28;20504;-73
2022/10/20 01:10:08;;;;;;;13.07;3.85;;;;;;;20.29;92.23;101233.38;2111950;28;20078;-73
2022/10/20 01:11:39;;;;;;;15.52;3.97;;;;;;;20.30;92.42;101235.16;2113240;28;20047;-73
2022/10/20 01:13:06;;;;;;;11.15;4.25;;;;;;;20.29;92.67;101228.91;2106292;28;20052;-72
2022/10/20 01:14:40;;;;;;;16.17;4.28;;;;;;;20.29;92.57;101226.22;2098504;28;20053;-73
2022/10/20 01:16:11;;;;;;;7.25;3.97;;;;;;;20.30;92.33;101229.78;2105150;28;20048;-73
2022/10/20 01:17:43;;;;;;;12.20;4.30;;;;;;;20.29;92.53;101228.00;2105177;28;20485;-73
2022/10/20 01:19:19;;;;;;;10.65;4.75;;;;;;;20.30;92.81;101229.78;2096249;28;20101;-72
2022/10/20 01:21:19;;;;;;;10.77;4.32;;;;;;;20.29;92.16;101228.91;2095732;28;20469;-72
2022/10/20 01:23:06;;;;;;;10.27;3.45;;;;;;;20.30;92.27;101232.47;2100989;28;20116;-73
2022/10/20 01:24:48;;;;;;;11.00;4.22;;;;;;;20.28;92.56;101231.63;2105828;28;20035;-72
2022/10/20 01:26:38;;;;;;;8.23;4.13;;;;;;;20.27;92.47;101229.84;2097594;28;20109;-73
2022/10/20 01:28:07;;;;;;;8.73;3.92;;;;;;;20.28;92.61;101229.81;2075704;28;20425;-73
2022/10/20 01:29:33;;;;;;;15.55;4.93;;;;;;;20.29;92.27;101228.00;2102092;28;20633;-72
2022/10/20 01:30:59;;;;;;;9.05;3.90;;;;;;;20.29;92.33;101228.00;2102383;28;20040;-73
2022/10/20 01:32:26;;;;;;;10.45;4.32;;;;;;;20.31;92.21;101228.88;2103508;28;20054;-72
2022/10/20 01:33:54;;;;;;;8.85;4.40;;;;;;;20.30;92.12;101230.66;2103984;28;20047;-72
2022/10/20 01:35:26;;;;;;;11.60;4.18;;;;;;;20.31;92.11;101231.56;2106328;28;20059;-72
2022/10/20 01:36:55;;;;;;;7.03;3.72;;;;;;;20.30;92.18;101232.47;2096413;28;20135;-72
2022/10/20 01:38:24;;;;;;;14.68;4.03;;;;;;;20.27;92.45;101229.84;2087381;28;20451;-72
2022/10/20 01:39:52;;;;;;;9.93;3.88;;;;;;;20.26;92.39;101225.41;2104335;28;20040;-72
2022/10/20 01:41:22;;;;;;;12.05;4.35;;;;;;;20.26;92.25;101228.06;2079452;28;20094;-72
2022/10/20 01:42:48;;;;;;;8.95;4.00;;;;;;;20.25;92.14;101223.63;2094586;28;20041;-72
2022/10/20 01:44:15;;;;;;;9.50;4.05;;;;;;;20.26;91.78;101225.41;2083198;28;20065;-72
2022/10/20 01:45:42;;;;;;;10.82;3.53;;;;;;;20.25;91.73;101226.31;2095783;28;20056;-72
2022/10/20 01:47:06;;;;;;;9.20;3.60;;;;;;;20.25;91.46;101226.31;2098221;28;20442;-72
2022/10/20 01:48:33;;;;;;;10.98;3.63;;;;;;;20.23;91.44;101222.75;2086447;28;20048;-72
2022/10/20 01:49:56;;;;;;;10.93;4.13;;;;;;;20.21;91.66;101224.59;2093892;28;20045;-73
2022/10/20 01:51:18;;;;;;;10.60;3.75;;;;;;;20.20;91.69;101225.50;2103497;28;20044;-73
2022/10/20 01:52:39;;;;;;;11.18;4.30;;;;;;;20.19;92.19;101227.28;2095173;28;20049;-73
2022/10/20 01:54:02;;;;;;;10.85;4.30;;;;;;;20.17;92.54;101223.75;2083197;28;20053;-72
2022/10/20 01:55:25;;;;;;;13.80;4.55;;;;;;;20.17;92.94;101220.19;2084735;28;20057;-73
2022/10/20 01:57:03;;;;;;;12.43;4.28;;;;;;;20.16;93.12;101221.09;2092617;28;20048;-73
2022/10/20 01:58:50;;;;;;;9.77;3.83;;;;;;;20.16;93.48;101219.28;2104487;28;20055;-73
2022/10/20 02:00:17;;;;;;;7.40;3.88;;;;;;;20.16;93.67;101215.72;2105580;28;20148;-72
2022/10/20 02:01:57;;;;;;;16.02;4.30;;;;;;;20.15;93.85;101216.66;2103501;28;20092;-73
2022/10/20 02:03:33;;;;;;;7.97;4.15;;;;;;;20.12;94.37;101222.94;2105518;28;20135;-72
2022/10/20 02:05:09;;;;;;;16.23;3.90;;;;;;;20.12;94.59;101219.38;2112912;28;20051;-72
2022/10/20 02:06:42;;;;;;;10.88;3.85;;;;;;;20.11;94.83;101220.28;2089154;28;20615;-72
2022/10/20 02:08:11;;;;;;;10.77;4.45;;;;;;;20.10;95.21;101221.19;2096709;28;20645;-73
2022/10/20 02:09:44;;;;;;;8.15;4.35;;;;;;;20.08;95.26;101220.34;2105103;28;20480;-73
2022/10/20 02:11:10;;;;;;;8.05;3.97;;;;;;;20.06;95.41;101228.41;2097075;28;20052;-72
2022/10/20 02:12:37;;;;;;;9.68;4.78;;;;;;;20.05;95.63;101218.59;2101731;28;20411;-73
2022/10/20 02:14:01;;;;;;;19.25;5.05;;;;;;;20.05;95.78;101231.09;2103442;28;20365;-73
2022/10/20 02:15:26;;;;;;;11.85;4.30;;;;;;;20.04;95.89;101232.91;2099016;28;20106;-73
2022/10/20 02:16:52;;;;;;;8.88;3.60;;;;;;;20.02;95.57;101229.34;2095885;28;20040;-73
2022/10/20 02:18:19;;;;;;;9.48;3.58;;;;;;;20.02;95.72;101234.69;2095355;28;20064;-72
2022/10/20 02:19:45;;;;;;;7.97;4.40;;;;;;;20.02;95.50;101236.53;2095166;28;20047;-72
2022/10/20 02:21:06;;;;;;;11.65;3.75;;;;;;;20.02;95.60;101233.84;2095136;28;20516;-73
2022/10/20 02:22:29;;;;;;;11.00;3.75;;;;;;;20.01;95.79;101230.28;2094521;28;20132;-73
2022/10/20 02:23:52;;;;;;;10.57;4.22;;;;;;;20.01;96.08;101235.63;2090888;28;20512;-72
2022/10/20 02:25:15;;;;;;;11.70;4.13;;;;;;;20.01;95.86;101242.78;2100219;28;20097;-72
2022/10/20 02:26:38;;;;;;;12.25;4.13;;;;;;;20.01;96.03;101238.31;2094436;28;20044;-72
2022/10/20 02:28:02;;;;;;;9.02;3.70;;;;;;;20.02;95.73;101234.69;2102623;28;20036;-72
2022/10/20 02:29:30;;;;;;;13.45;4.43;;;;;;;20.02;95.65;101236.53;2111710;28;20055;-73
2022/10/20 02:30:54;;;;;;;8.82;3.65;;;;;;;20.03;95.54;101240.94;2071000;28;20413;-72
2022/10/20 02:32:19;;;;;;;8.25;3.17;;;;;;;20.01;95.24;101240.13;2096701;28;20091;-72
2022/10/20 02:33:42;;;;;;;11.98;4.50;;;;;;;20.03;95.21;101236.47;2097324;28;20151;-72
2022/10/20 02:35:07;;;;;;;9.77;3.50;;;;;;;20.03;94.88;101233.78;2094957;28;20056;-72
2022/10/20 02:36:29;;;;;;;12.60;3.72;;;;;;;20.04;95.04;101238.25;2096447;28;20049;-72
2022/10/20 02:37:51;;;;;;;;;;;;;;;20.01;94.96;101238.31;2109336;28;20896;-73
2022/10/20 02:39:12;;;;;;;8.18;3.70;;;;;;;20.02;94.87;101231.16;2097337;28;19920;-72
2022/10/20 02:40:35;;;;;;;10.13;3.53;;;;;;;20.03;94.76;101235.59;2100344;28;20064;-73
2022/10/20 02:41:57;;;;;;;7.38;3.25;;;;;;;20.02;94.57;101234.69;2094693;28;20045;-73
2022/10/20 02:43:20;;;;;;;6.53;3.55;;;;;;;20.01;94.42;101232.06;2093604;28;20231;-72
2022/10/20 02:44:41;;;;;;;13.23;3.78;;;;;;;20.01;94.38;101235.63;2099433;28;20365;-72
2022/10/20 02:46:05;;;;;;;12.82;4.15;;;;;;;20.01;94.24;101234.75;2094663;28;20087;-72
2022/10/20 02:47:27;;;;;;;8.25;3.70;;;;;;;20.00;94.10;101241.00;2100889;28;20116;-72
2022/10/20 02:48:49;;;;;;;6.80;3.20;;;;;;;20.01;93.87;101237.44;2105546;28;20050;-72
2022/10/20 02:50:10;;;;;;;8.13;3.58;;;;;;;20.02;93.51;101241.88;2094381;28;20044;-72
2022/10/20 02:51:33;;;;;;;9.63;3.53;;;;;;;20.02;93.32;101239.22;2100369;28;20048;-72
2022/10/20 02:52:56;;;;;;;10.95;3.65;;;;;;;20.01;93.12;101240.13;2094750;28;20048;-73
2022/10/20 02:54:18;;;;;;;10.05;3.90;;;;;;;20.01;93.07;101240.13;2099169;28;20056;-72
2022/10/20 02:55:40;;;;;;;7.28;3.67;;;;;;;20.00;93.43;101232.97;2102649;28;20109;-73
2022/10/20 02:57:03;;;;;;;10.63;3.60;;;;;;;20.01;93.67;101237.44;2102538;28;20047;-72
2022/10/20 02:58:25;;;;;;;7.82;3.63;;;;;;;20.00;93.68;101238.34;2094702;28;20059;-73
2022/10/20 02:59:47;;;;;;;13.52;3.80;;;;;;;19.99;93.94;101242.81;2100265;28;20051;-72
2022/10/20 03:01:10;;;;;;;6.63;3.17;;;;;;;20.00;93.90;101241.00;2105057;28;20047;-72
2022/10/20 03:02:32;;;;;;;8.30;3.78;;;;;;;19.98;94.08;101243.72;2103007;28;20097;-72
2022/10/20 03:03:58;;;;;;;8.25;3.50;;;;;;;19.99;94.17;101244.59;2105392;28;20048;-72
2022/10/20 03:05:19;;;;;;;9.38;4.05;;;;;;;19.97;94.17;101241.94;2097085;28;20076;-72
2022/10/20 03:06:42;;;;;;;9.05;3.85;;;;;;;19.96;94.21;101240.16;2087097;28;20049;-72
2022/10/20 03:08:05;;;;;;;8.73;3.88;;;;;;;19.96;94.61;101244.63;2102730;28;20052;-72
2022/10/20 03:09:26;;;;;;;12.32;4.00;;;;;;;19.95;94.45;101240.22;2104943;28;20073;-73
2022/10/20 03:10:49;;;;;;;7.90;3.63;;;;;;;19.95;94.73;101245.56;2108603;28;20526;-73
2022/10/20 03:12:10;;;;;;;11.45;3.78;;;;;;;19.95;94.48;101242.88;2105584;28;20052;-73
2022/10/20 03:13:32;;;;;;;7.63;3.60;;;;;;;19.96;94.51;101247.31;2102464;28;20109;-73
2022/10/20 03:14:54;;;;;;;9.32;3.60;;;;;;;19.94;94.73;101249.16;2110218;28;20092;-73
2022/10/20 03:16:18;;;;;;;8.45;3.97;;;;;;;19.94;94.59;101258.09;2090411;28;20061;-74
2022/10/20 03:17:40;;;;;;;7.35;3.78;;;;;;;19.94;95.03;101249.16;2100246;28;20044;-72
2022/10/20 03:19:02;;;;;;;13.50;3.50;;;;;;;19.92;95.24;101243.81;2102606;28;20087;-72
2022/10/20 03:20:23;;;;;;;10.73;4.00;;;;;;;19.90;95.08;101241.16;2105192;28;20052;-72
2022/10/20 03:21:47;;;;;;;15.52;4.35;;;;;;;19.89;94.90;101243.84;2100643;28;20574;-72
2022/10/20 03:23:10;;;;;;;10.90;4.38;;;;;;;19.89;94.50;101247.41;2094017;28;20070;-72
2022/10/20 03:24:31;;;;;;;8.65;3.60;;;;;;;19.88;94.25;101250.13;2107444;28;20058;-72
2022/10/20 03:25:53;;;;;;;8.73;3.60;;;;;;;19.85;94.32;101243.00;2096483;28;20078;-72
2022/10/20 03:27:15;;;;;;;8.18;3.25;;;;;;;19.82;94.06;101253.75;2091458;28;20087;-71
2022/10/20 03:28:38;;;;;;;11.23;3.08;;;;;;;19.78;93.48;101246.69;2090621;28;20052;-72
2022/10/20 03:29:59;;;;;;;7.50;3.47;;;;;;;19.78;93.76;101251.16;2088538;28;20041;-72
2022/10/20 03:31:23;;;;;;;11.65;3.40;;;;;;;19.78;93.45;101253.84;2094013;28;20523;-72
2022/10/20 03:32:44;;;;;;;8.65;3.67;;;;;;;19.76;93.37;101248.50;2103130;28;20146;-72
2022/10/20 03:34:07;;;;;;;8.00;3.38;;;;;;;19.74;93.50;101241.41;2095389;28;20045;-73
2022/10/20 03:35:29;;;;;;;8.77;3.47;;;;;;;19.72;93.66;101243.22;2096555;28;20080;-72
2022/10/20 03:36:52;;;;;;;13.10;3.50;;;;;;;19.70;93.86;101247.69;2093537;28;20047;-72
2022/10/20 03:38:13;;;;;;;9.95;3.35;;;;;;;19.66;94.33;101245.97;2090727;28;20559;-72
2022/10/20 03:39:36;;;;;;;11.50;4.03;;;;;;;19.63;94.29;101249.56;2091794;28;20049;-72
2022/10/20 03:40:57;;;;;;;7.20;2.97;;;;;;;19.59;94.57;101245.19;2099671;28;20496;-73
2022/10/20 03:42:20;;;;;;;8.05;3.25;;;;;;;19.57;94.81;101252.34;2102609;28;20559;-72
2022/10/20 03:43:43;;;;;;;9.77;3.47;;;;;;;19.54;94.71;101247.03;2102116;28;20435;-73
2022/10/20 03:45:07;;;;;;;8.73;3.40;;;;;;;19.52;94.76;101250.63;2102556;28;20120;-73
2022/10/20 03:46:31;;;;;;;6.50;3.17;;;;;;;19.49;95.02;101254.25;2105158;28;20542;-73
2022/10/20 03:47:53;;;;;;;10.77;3.70;;;;;;;19.47;94.63;101248.91;2094285;28;20044;-72
2022/10/20 03:49:15;;;;;;;13.13;3.63;;;;;;;19.48;94.60;101255.16;2093975;28;20081;-72
2022/10/20 03:50:37;;;;;;;10.50;2.90;;;;;;;19.48;94.63;101258.72;2098678;28;20406;-72
2022/10/20 03:52:00;;;;;;;9.57;4.10;;;;;;;19.45;94.24;101253.34;2093942;28;20083;-72
2022/10/20 03:53:22;;;;;;;11.15;3.53;;;;;;;19.45;94.23;101252.47;2099555;28;20043;-72
2022/10/20 03:54:44;;;;;;;10.45;3.15;;;;;;;19.43;94.24;101257.84;2101284;28;20172;-72
2022/10/20 03:56:07;;;;;;;14.40;3.58;;;;;;;19.45;94.26;101250.69;2094215;28;20060;-73
2022/10/20 03:57:29;;;;;;;8.65;3.20;;;;;;;19.48;94.21;101258.72;2096394;28;20114;-73
2022/10/20 03:58:50;;;;;;;6.82;2.55;;;;;;;19.49;94.00;101256.94;2106347;28;20078;-73
2022/10/20 04:00:13;;;;;;;9.35;3.75;;;;;;;19.50;93.54;101256.00;2099362;28;20455;-73
2022/10/20 04:01:36;;;;;;;12.00;3.38;;;;;;;19.53;93.32;101260.44;2096672;28;20040;-72
2022/10/20 04:02:59;;;;;;;14.90;3.92;;;;;;;19.53;93.55;101257.75;2102709;28;20420;-72
2022/10/20 04:04:21;;;;;;;9.48;3.22;;;;;;;19.52;93.45;101259.56;2104566;28;20044;-72
2022/10/20 04:05:43;;;;;;;11.57;3.33;;;;;;;19.49;93.52;101256.94;2102460;28;20162;-73
2022/10/20 04:07:05;;;;;;;6.90;3.30;;;;;;;19.43;93.83;101259.63;2101643;28;20109;-72
2022/10/20 04:08:27;;;;;;;8.73;3.03;;;;;;;19.37;93.86;101265.94;2102055;28;20056;-72
2022/10/20 04:09:49;;;;;;;9.88;3.25;;;;;;;19.31;94.22;101263.34;2096817;28;20674;-72
2022/10/20 04:11:12;;;;;;;8.18;3.22;;;;;;;19.25;94.68;101266.09;2101308;28;20523;-72
2022/10/20 04:12:35;;;;;;;9.27;3.72;;;;;;;19.21;95.34;101268.84;2102051;28;20069;-72
2022/10/20 04:13:57;;;;;;;9.13;3.20;;;;;;;19.18;95.24;101268.88;2102459;28;20404;-72
2022/10/20 04:15:19;;;;;;;10.55;3.08;;;;;;;19.15;95.33;101266.25;2094281;28;20505;-73
2022/10/20 04:16:43;;;;;;;9.13;3.00;;;;;;;19.11;95.74;101268.06;2102221;28;20048;-72
2022/10/20 04:18:05;;;;;;;10.15;3.33;;;;;;;19.07;96.05;101267.22;2103854;28;20482;-72
2022/10/20 04:19:28;;;;;;;8.07;3.25;;;;;;;19.04;96.25;101275.25;2096321;28;20099;-73
2022/10/20 04:20:49;;;;;;;8.40;3.40;;;;;;;19.03;96.49;101276.16;2102111;28;20101;-72
2022/10/20 04:22:11;;;;;;;8.15;3.30;;;;;;;19.01;96.30;101272.63;2102086;28;20463;-72
2022/10/20 04:23:33;;;;;;;8.93;2.88;;;;;;;19.04;96.07;101269.03;2093885;28;20049;-72
2022/10/20 04:24:55;;;;;;;10.23;3.45;;;;;;;19.05;95.75;101277.03;2101369;28;20066;-73
2022/10/20 04:26:18;;;;;;;9.70;3.03;;;;;;;19.07;95.44;101275.25;2096775;28;20090;-72
2022/10/20 04:27:39;;;;;;;8.75;3.17;;;;;;;19.08;95.23;101282.38;2091453;28;20051;-72
2022/10/20 04:29:02;;;;;;;7.38;2.60;;;;;;;19.09;95.02;101268.09;2101554;28;20048;-73
2022/10/20 04:30:24;;;;;;;10.15;3.00;;;;;;;19.14;94.81;101275.16;2101571;28;20154;-72
2022/10/20 04:31:48;;;;;;;5.57;2.75;;;;;;;19.17;94.35;101275.13;2093616;28;20056;-72
2022/10/20 04:33:11;;;;;;;10.25;3.28;;;;;;;19.19;94.29;101278.69;2091558;28;20047;-72
2022/10/20 04:34:33;;;;;;;7.32;2.72;;;;;;;19.22;93.85;101278.66;2102487;28;20051;-72
2022/10/20 04:35:59;;;;;;;6.53;3.15;;;;;;;19.25;93.56;101283.97;2110591;28;20535;-72
2022/10/20 04:37:22;;;;;;;10.02;2.75;;;;;;;19.27;93.79;101283.03;2104250;28;20052;-72
2022/10/20 04:38:47;;;;;;;9.40;2.90;;;;;;;19.30;93.43;101287.47;2101380;28;20104;-73
2022/10/20 04:40:11;;;;;;;10.80;3.90;;;;;;;19.32;92.92;101288.34;2093548;28;20044;-72
2022/10/20 04:41:32;;;;;;;8.20;3.33;;;;;;;19.36;92.77;101284.75;2094170;28;20396;-72
2022/10/20 04:42:55;;;;;;;8.93;4.07;;;;;;;19.38;92.49;101283.78;2102073;28;20040;-72
2022/10/20 04:44:17;;;;;;;11.00;3.97;;;;;;;19.40;91.91;101284.66;2106507;28;20063;-72
2022/10/20 04:45:40;;;;;;;14.70;3.42;;;;;;;19.41;91.96;101282.88;2092952;28;20109;-72
2022/10/20 04:47:05;;;;;;;11.13;3.05;;;;;;;19.40;91.88;101281.09;2091667;28;20055;-72
2022/10/20 04:48:26;;;;;;;8.77;2.80;;;;;;;19.41;91.70;101289.13;2099223;28;20101;-73
2022/10/20 04:49:48;;;;;;;9.93;2.92;;;;;;;19.42;91.57;101287.34;2102126;28;20041;-73
2022/10/20 04:51:12;;;;;;;9.40;2.90;;;;;;;19.43;91.32;101286.41;2092861;28;20056;-73
2022/10/20 04:52:34;;;;;;;7.13;2.83;;;;;;;19.42;90.99;101282.88;2099480;28;20040;-72
2022/10/20 04:53:57;;;;;;;12.20;2.97;;;;;;;19.45;90.84;101285.50;2101724;28;20039;-72
2022/10/20 04:55:22;;;;;;;7.18;2.88;;;;;;;19.49;90.48;101289.06;2108784;28;20039;-72
2022/10/20 04:56:45;;;;;;;6.22;2.78;;;;;;;19.52;90.45;101289.03;2103967;28;20036;-72
2022/10/20 04:58:06;;;;;;;8.43;2.58;;;;;;;19.56;90.13;101285.38;2096968;28;20594;-72
2022/10/20 04:59:28;;;;;;;11.50;3.20;;;;;;;19.61;90.02;101291.59;2093216;28;20150;-72
2022/10/20 05:00:50;;;;;;;9.30;3.10;;;;;;;19.65;89.49;101289.75;2091288;28;20071;-72
2022/10/20 05:02:14;;;;;;;9.32;3.10;;;;;;;19.67;89.30;101288.81;2099324;28;20055;-72
2022/10/20 05:03:37;;;;;;;8.68;2.97;;;;;;;19.69;89.41;101292.34;2102311;28;20048;-72
2022/10/20 05:05:00;;;;;;;10.23;3.25;;;;;;;19.71;89.19;101292.34;2099120;28;20433;-72
2022/10/20 05:06:25;;;;;;;7.60;2.50;;;;;;;19.72;89.13;101292.31;2104774;28;20048;-72
2022/10/20 05:07:47;;;;;;;7.47;2.65;;;;;;;19.75;88.86;101304.81;2102359;28;20051;-71
2022/10/20 05:09:09;;;;;;;6.05;2.53;;;;;;;19.76;89.10;101296.72;2101329;28;20059;-72
2022/10/20 05:10:31;;;;;;;14.00;2.90;;;;;;;19.79;88.96;101296.69;2105384;28;20047;-72
2022/10/20 05:11:54;;;;;;;7.68;3.10;;;;;;;19.81;89.07;101305.63;2103868;28;20523;-72
2022/10/20 05:13:16;;;;;;;7.35;2.88;;;;;;;19.84;89.36;101307.34;2101952;28;20113;-72
2022/10/20 05:14:39;;;;;;;10.82;3.63;;;;;;;19.83;89.55;101311.81;2101711;28;20113;-73
2022/10/20 05:16:02;;;;;;;13.52;3.67;;;;;;;19.81;89.73;101307.41;2104829;28;20097;-72
2022/10/20 05:17:26;;;;;;;15.65;3.45;;;;;;;19.80;89.94;101306.50;2101862;28;20059;-72
2022/10/20 05:18:50;;;;;;;8.57;2.90;;;;;;;19.80;90.12;101314.56;2104181;28;20056;-72
2022/10/20 05:20:13;;;;;;;9.57;3.00;;;;;;;19.80;90.46;101311.88;2102472;28;20048;-72
2022/10/20 05:21:35;;;;;;;8.30;3.05;;;;;;;19.80;89.97;101310.97;2103346;28;20430;-72
2022/10/20 05:22:57;;;;;;;8.98;2.75;;;;;;;19.84;89.21;101318.94;2093399;28;20045;-72
2022/10/20 05:24:19;;;;;;;7.50;3.28;;;;;;;19.92;88.81;101318.84;2090536;28;20040;-72
2022/10/20 05:25:42;;;;;;;5.25;2.75;;;;;;;19.98;88.08;101321.44;2093660;28;20048;-72
2022/10/20 05:27:04;;;;;;;7.50;2.67;;;;;;;20.07;87.79;101325.78;2087606;28;20057;-72
2022/10/20 05:28:27;;;;;;;7.85;2.63;;;;;;;20.12;87.01;101324.81;2099229;28;20518;-72
2022/10/20 05:29:49;;;;;;;12.02;2.90;;;;;;;20.16;87.07;101329.22;2087982;28;20162;-72
2022/10/20 05:31:11;;;;;;;7.53;2.60;;;;;;;20.19;86.78;101321.13;2099278;28;20064;-72
2022/10/20 05:32:35;;;;;;;8.05;2.85;;;;;;;20.22;86.80;101329.13;2110421;28;20044;-72
2022/10/20 05:33:58;;;;;;;9.35;2.72;;;;;;;20.23;86.75;101330.00;2096141;28;20045;-71
2022/10/20 05:35:19;;;;;;;5.22;2.33;;;;;;;20.25;86.34;101334.44;2089831;28;20089;-71
2022/10/20 05:36:42;;;;;;;10.52;3.25;;;;;;;20.23;86.27;101332.69;2099363;28;20055;-72
2022/10/20 05:38:04;;;;;;;8.75;3.28;;;;;;;20.22;86.19;101336.28;2101729;28;20455;-72
2022/10/20 05:39:27;;;;;;;8.32;3.40;;;;;;;20.18;86.12;101334.56;2102648;28;20086;-72
2022/10/20 05:40:50;;;;;;;16.35;2.38;;;;;;;20.13;86.27;101350.72;2106371;28;20145;-72
2022/10/20 05:42:12;;;;;;;8.05;3.13;;;;;;;20.10;86.18;101347.19;2103240;28;20051;-71
2022/10/20 05:43:34;;;;;;;14.25;2.97;;;;;;;20.06;86.43;101345.47;2095035;28;20113;-71
2022/10/20 05:44:56;;;;;;;12.25;3.08;;;;;;;20.03;86.77;101356.22;2099927;28;20442;-72
2022/10/20 05:46:19;;;;;;;7.55;3.08;;;;;;;20.03;87.06;101358.91;2103399;28;20464;-72
2022/10/20 05:47:43;;;;;;;8.20;2.60;;;;;;;19.99;86.96;101352.72;2093024;28;20044;-71
2022/10/20 05:49:06;;;;;;;14.43;3.25;;;;;;;19.98;87.21;101347.34;2094529;28;20055;-71
2022/10/20 05:50:28;;;;;;;6.75;2.65;;;;;;;19.96;86.88;101347.38;2100417;28;20044;-72
2022/10/20 05:51:50;;;;;;;7.32;2.58;;;;;;;19.96;87.20;101346.47;2103387;28;20551;-72
2022/10/20 05:53:13;;;;;;;6.13;2.50;;;;;;;20.01;87.44;101355.38;2095185;28;20056;-72
2022/10/20 05:54:34;;;;;;;10.38;2.50;;;;;;;20.07;87.80;101356.19;2095111;28;20145;-72
2022/10/20 05:56:02;;;;;;;10.90;2.90;;;;;;;20.23;88.38;101354.13;2091897;28;20068;-72
2022/10/20 05:57:24;;;;;;;11.43;2.60;;;;;;;20.40;87.95;101357.50;2095823;28;20081;-72
2022/10/20 05:58:48;;;;;;;6.32;2.17;;;;;;;20.49;88.03;101354.66;2103266;28;20095;-72
2022/10/20 06:00:11;;;;;;;7.00;2.47;;;;;;;20.53;87.56;101356.41;2095820;28;20048;-72
2022/10/20 06:01:39;;;;;;;6.13;2.05;;;;;;;20.60;87.33;101363.47;2084705;28;20053;-72
2022/10/20 06:03:04;;;;;;;12.55;2.50;;;;;;;20.72;86.68;101356.09;2087061;28;20060;-71
2022/10/20 06:04:28;;;;;;;7.63;2.25;;;;;;;20.74;86.10;101359.66;2088402;28;20095;-72
2022/10/20 06:05:56;;;;;;;8.13;2.40;;;;;;;20.73;85.56;101360.56;2084118;28;20091;-72
2022/10/20 06:07:19;;;;;;;11.80;2.47;;;;;;;20.68;85.16;101364.19;2100537;28;20043;-71
2022/10/20 06:08:40;;;;;;;3.42;1.95;;;;;;;20.68;85.35;101363.31;2099063;28;20049;-72
2022/10/20 06:10:03;;;;;;;7.25;2.42;;;;;;;20.77;85.62;101363.16;2101827;28;20046;-72
2022/10/20 06:11:26;;;;;;;4.82;2.13;;;;;;;20.93;85.70;101369.19;2093755;28;20049;-72
2022/10/20 06:12:47;;;;;;;7.65;2.03;;;;;;;21.08;85.34;101372.47;2109206;28;20077;-72
2022/10/20 06:14:10;;;;;;;4.32;1.92;;;;;;;21.13;84.59;101369.72;2093679;28;20047;-72
2022/10/20 06:15:32;;;;;;;9.32;2.53;;;;;;;21.18;84.28;101367.84;2106718;28;20461;-72
2022/10/20 06:16:56;;;;;;;8.13;2.10;;;;;;;21.36;83.96;101372.88;2102240;28;20581;-72
2022/10/20 06:18:20;;;;;;;3.75;1.80;;;;;;;21.59;83.18;101376.94;2099178;28;20048;-72
2022/10/20 06:19:43;;;;;;;5.25;1.70;;;;;;;21.75;81.88;101375.69;2098455;28;20188;-72
2022/10/20 06:21:09;;;;;;;6.35;1.60;;;;;;;21.85;80.62;101367.41;2092678;28;20059;-73
2022/10/20 06:22:31;;;;;;;2.67;1.42;;;;;;;22.05;79.34;101363.44;2089187;28;20488;-73
2022/10/20 06:23:54;;;;;;;4.15;1.40;;;;;;;22.24;77.54;101364.81;2096091;28;20416;-72
2022/10/20 06:25:16;;;;;;;3.08;1.25;;;;;;;22.40;76.23;101366.19;2090519;28;20101;-73
2022/10/20 06:26:40;;;;;;;3.75;1.75;;;;;;;22.61;75.55;101367.50;2104257;28;20054;-73
2022/10/20 06:28:03;;;;;;;7.00;1.63;;;;;;;22.95;74.42;101370.28;2100028;28;20541;-73
2022/10/20 06:29:26;;;;;;;6.15;1.92;;;;;;;23.26;72.48;101373.03;2099913;28;20048;-73